createdAt,value
2022-12-08T00:01:33.721Z,9.07
2022-12-08T00:04:03.965Z,10.83
2022-12-08T00:06:52.100Z,11.03
2022-12-08T00:09:25.095Z,9.73
2022-12-08T00:11:55.839Z,8.17
2022-12-08T00:14:25.827Z,9.83
2022-12-08T00:16:53.972Z,8.50
2022-12-08T00:19:22.906Z,9.63
2022-12-08T00:21:50.785Z,8.60
2022-12-08T00:24:21.112Z,9.00
2022-12-08T00:26:49.304Z,9.33
2022-12-08T00:29:17.956Z,9.10
2022-12-08T00:31:45.776Z,8.87
2022-12-08T00:34:13.628Z,8.03
2022-12-08T00:36:41.335Z,8.33
2022-12-08T00:39:09.646Z,8.70
2022-12-08T00:41:56.307Z,8.80
2022-12-08T00:44:25.383Z,7.70
2022-12-08T00:46:53.045Z,9.77
2022-12-08T00:49:21.742Z,7.50
2022-12-08T00:51:49.856Z,8.33
2022-12-08T00:54:18.309Z,6.77
2022-12-08T00:56:47.490Z,7.90
2022-12-08T00:59:15.917Z,9.20
2022-12-08T01:01:45.744Z,8.77
2022-12-08T01:04:17.652Z,7.80
2022-12-08T01:06:45.961Z,9.00
2022-12-08T01:09:16.733Z,8.40
2022-12-08T01:11:45.446Z,7.97
2022-12-08T01:14:14.867Z,7.97
2022-12-08T01:16:43.149Z,9.10
2022-12-08T01:19:12.391Z,8.37
2022-12-08T01:21:41.156Z,9.83
2022-12-08T01:24:13.693Z,9.47
2022-12-08T01:26:41.783Z,10.50
2022-12-08T01:29:10.070Z,8.80
2022-12-08T01:31:40.497Z,9.00
2022-12-08T01:34:09.145Z,9.17
2022-12-08T01:36:38.662Z,8.93
2022-12-08T01:39:08.163Z,7.57
2022-12-08T01:41:38.270Z,10.40
2022-12-08T01:44:44.732Z,6.90
2022-12-08T01:47:13.779Z,9.77
2022-12-08T01:49:41.560Z,8.20
2022-12-08T01:52:14.858Z,7.20
2022-12-08T01:54:48.013Z,7.33
2022-12-08T01:57:19.663Z,9.27
2022-12-08T01:59:52.200Z,9.67
2022-12-08T02:02:21.849Z,9.10
2022-12-08T02:04:49.903Z,7.50
2022-12-08T02:07:18.762Z,7.73
2022-12-08T02:09:47.570Z,6.97
2022-12-08T02:12:15.685Z,9.27
2022-12-08T02:14:43.413Z,8.67
2022-12-08T02:17:32.642Z,6.40
2022-12-08T02:20:19.278Z,8.23
2022-12-08T02:22:55.706Z,8.20
2022-12-08T02:25:34.216Z,9.07
2022-12-08T02:28:17.302Z,9.67
2022-12-08T02:30:52.268Z,6.87
2022-12-08T02:33:54.558Z,7.57
2022-12-08T02:36:26.538Z,8.23
2022-12-08T02:39:03.784Z,7.63
2022-12-08T02:41:39.671Z,8.90
2022-12-08T02:44:12.005Z,8.50
2022-12-08T02:46:46.611Z,8.13
2022-12-08T02:49:16.662Z,9.70
2022-12-08T02:51:44.988Z,7.17
2022-12-08T02:54:13.813Z,9.93
2022-12-08T02:56:56.298Z,9.73
2022-12-08T02:59:35.131Z,8.43
2022-12-08T03:02:18.270Z,9.63
2022-12-08T03:04:55.941Z,9.77
2022-12-08T03:07:30.342Z,6.60
2022-12-08T03:10:09.054Z,8.97
2022-12-08T03:12:41.148Z,9.23
2022-12-08T03:15:14.225Z,8.07
2022-12-08T03:17:46.913Z,9.93
2022-12-08T03:20:21.947Z,8.57
2022-12-08T03:22:53.060Z,9.13
2022-12-08T03:25:23.146Z,9.83
2022-12-08T03:27:52.942Z,11.33
2022-12-08T03:30:20.829Z,8.90
2022-12-08T03:32:54.097Z,9.90
2022-12-08T03:35:26.936Z,9.33
2022-12-08T03:38:03.995Z,10.70
2022-12-08T03:40:31.743Z,8.00
2022-12-08T03:42:59.515Z,9.47
2022-12-08T03:45:27.363Z,8.83
2022-12-08T03:47:55.348Z,9.13
2022-12-08T03:50:24.763Z,7.30
2022-12-08T03:52:52.993Z,7.30
2022-12-08T03:55:21.368Z,7.30
2022-12-08T03:57:49.692Z,10.23
2022-12-08T04:00:17.905Z,7.97
2022-12-08T04:02:46.328Z,9.43
2022-12-08T04:05:14.031Z,8.60
2022-12-08T04:07:43.548Z,7.40
2022-12-08T04:10:11.983Z,8.37
2022-12-08T04:12:39.685Z,7.83
2022-12-08T04:15:08.373Z,8.57
2022-12-08T04:17:36.699Z,8.27
2022-12-08T04:20:05.007Z,8.53
2022-12-08T04:22:32.859Z,8.53
2022-12-08T04:25:01.961Z,7.70
2022-12-08T04:27:29.942Z,8.27
2022-12-08T04:29:57.620Z,8.77
2022-12-08T04:32:25.823Z,7.87
2022-12-08T04:34:53.591Z,8.20
2022-12-08T04:37:21.553Z,9.03
2022-12-08T04:39:49.188Z,7.80
2022-12-08T04:42:18.768Z,10.53
2022-12-08T04:44:46.401Z,8.23
2022-12-08T04:47:14.323Z,7.90
2022-12-08T04:49:42.556Z,10.10
2022-12-08T04:52:10.193Z,9.73
2022-12-08T04:54:38.365Z,9.20
2022-12-08T04:57:06.381Z,10.43
2022-12-08T04:59:36.194Z,8.93
2022-12-08T05:02:03.981Z,8.27
2022-12-08T05:04:31.892Z,8.77
2022-12-08T05:07:00.046Z,8.90
2022-12-08T05:09:28.287Z,8.80
2022-12-08T05:11:56.025Z,8.00
2022-12-08T05:14:24.996Z,10.40
2022-12-08T05:16:54.227Z,11.50
2022-12-08T05:19:21.971Z,9.63
2022-12-08T05:21:49.622Z,8.20
2022-12-08T05:24:17.660Z,8.97
2022-12-08T05:26:45.576Z,8.60
2022-12-08T05:29:13.624Z,7.47
2022-12-08T05:31:41.332Z,8.97
2022-12-08T05:34:10.732Z,11.47
2022-12-08T05:36:38.388Z,9.00
2022-12-08T05:39:06.764Z,9.20
2022-12-08T05:41:34.479Z,8.87
2022-12-08T05:44:02.588Z,10.93
2022-12-08T05:46:30.424Z,9.50
2022-12-08T05:49:00.914Z,9.47
2022-12-08T05:51:30.052Z,9.10
2022-12-08T05:53:58.154Z,9.97
2022-12-08T05:56:26.081Z,18.13
2022-12-08T05:58:54.044Z,15.70
2022-12-08T06:01:23.486Z,11.80
2022-12-08T06:03:51.570Z,10.10
2022-12-08T06:06:19.404Z,10.33
2022-12-08T06:08:49.794Z,9.63
2022-12-08T06:11:21.770Z,12.27
2022-12-08T06:13:50.342Z,9.67
2022-12-08T06:16:19.024Z,9.30
2022-12-08T06:18:47.821Z,14.23
2022-12-08T06:21:16.531Z,15.77
2022-12-08T06:23:45.069Z,12.07
2022-12-08T06:26:15.770Z,9.23
2022-12-08T06:28:44.503Z,8.23
2022-12-08T06:31:14.792Z,9.30
2022-12-08T06:33:42.767Z,7.93
2022-12-08T06:36:13.462Z,10.97
2022-12-08T06:38:43.575Z,14.40
2022-12-08T06:41:14.492Z,11.20
2022-12-08T06:43:43.364Z,11.43
2022-12-08T06:46:13.926Z,12.23
2022-12-08T06:48:41.612Z,13.40
2022-12-08T06:51:11.159Z,11.07
2022-12-08T06:53:39.515Z,10.07
2022-12-08T06:56:07.715Z,9.60
2022-12-08T06:58:36.775Z,11.80
2022-12-08T07:01:09.172Z,11.90
2022-12-08T07:03:37.739Z,8.67
2022-12-08T07:06:07.046Z,9.07
2022-12-08T07:08:35.691Z,11.60
2022-12-08T07:11:08.050Z,11.63
2022-12-08T07:13:37.221Z,11.40
2022-12-08T07:16:07.543Z,12.63
2022-12-08T07:18:35.427Z,11.17
2022-12-08T07:21:07.773Z,9.97
2022-12-08T07:23:35.440Z,11.83
2022-12-08T07:26:04.132Z,11.67
2022-12-08T07:28:33.535Z,10.90
2022-12-08T07:31:03.647Z,9.53
2022-12-08T07:33:31.364Z,11.13
2022-12-08T07:36:01.681Z,11.60
2022-12-08T07:38:29.683Z,10.80
2022-12-08T07:40:57.500Z,12.70
2022-12-08T07:43:25.217Z,11.20
2022-12-08T07:45:53.523Z,12.60
2022-12-08T07:48:22.527Z,10.43
2022-12-08T07:50:50.183Z,10.13
2022-12-08T07:53:17.825Z,11.53
2022-12-08T07:55:45.976Z,12.10
2022-12-08T07:58:13.619Z,11.90
2022-12-08T08:00:41.632Z,13.23
2022-12-08T08:03:11.620Z,13.10
2022-12-08T08:05:41.008Z,12.10
2022-12-08T08:08:08.710Z,12.87
2022-12-08T08:10:36.876Z,12.03
2022-12-08T08:13:04.694Z,10.87
2022-12-08T08:15:32.472Z,10.07
2022-12-08T08:18:00.184Z,15.57
2022-12-08T08:20:28.034Z,11.00
2022-12-08T08:22:57.154Z,12.67
2022-12-08T08:25:28.597Z,14.03
2022-12-08T08:27:56.235Z,14.30
2022-12-08T08:30:24.444Z,12.07
2022-12-08T08:32:52.360Z,13.30
2022-12-08T08:35:20.753Z,10.43
2022-12-08T08:37:49.404Z,9.77
2022-12-08T08:40:19.447Z,12.90
2022-12-08T08:42:47.452Z,13.13
2022-12-08T08:45:15.169Z,11.63
2022-12-08T08:47:43.143Z,11.17
2022-12-08T08:50:11.083Z,12.10
2022-12-08T08:52:39.155Z,9.77
2022-12-08T08:55:07.620Z,9.43
2022-12-08T08:57:37.884Z,9.80
2022-12-08T09:00:07.212Z,10.17
2022-12-08T09:02:35.828Z,11.63
2022-12-08T09:05:03.670Z,9.23
2022-12-08T09:07:31.927Z,9.60
2022-12-08T09:10:01.797Z,10.07
2022-12-08T09:12:30.299Z,12.07
2022-12-08T09:14:59.486Z,11.27
2022-12-08T09:17:28.438Z,10.57
2022-12-08T09:19:56.303Z,13.10
2022-12-08T09:22:24.349Z,11.80
2022-12-08T09:24:52.723Z,11.93
2022-12-08T09:27:20.962Z,11.53
2022-12-08T09:29:48.600Z,12.47
2022-12-08T09:32:17.627Z,12.63
2022-12-08T09:34:50.489Z,13.43
2022-12-08T09:37:19.990Z,13.00
2022-12-08T09:39:47.880Z,13.87
2022-12-08T09:42:27.297Z,12.73
2022-12-08T09:45:01.385Z,12.03
2022-12-08T09:47:36.300Z,11.70
2022-12-08T09:50:12.094Z,10.53
2022-12-08T09:52:44.907Z,11.60
2022-12-08T09:55:25.656Z,10.93
2022-12-08T09:58:01.753Z,12.70
2022-12-08T10:00:29.788Z,12.73
2022-12-08T10:03:00.294Z,13.17
2022-12-08T10:05:31.124Z,11.80
2022-12-08T10:08:06.031Z,11.77
2022-12-08T10:10:40.184Z,13.53
2022-12-08T10:13:17.679Z,11.80
2022-12-08T10:15:48.872Z,10.70
2022-12-08T10:18:20.633Z,12.13
2022-12-08T10:20:51.180Z,10.73
2022-12-08T10:23:26.850Z,10.97
2022-12-08T10:26:01.570Z,9.87
2022-12-08T10:28:29.558Z,10.70
2022-12-08T10:30:57.609Z,10.70
2022-12-08T10:33:29.059Z,10.53
2022-12-08T10:35:59.167Z,8.97
2022-12-08T10:38:30.560Z,9.33
2022-12-08T10:41:04.586Z,9.50
2022-12-08T10:43:33.449Z,11.77
2022-12-08T10:46:10.790Z,10.10
2022-12-08T10:48:49.253Z,11.97
2022-12-08T10:51:25.154Z,9.80
2022-12-08T10:53:53.227Z,8.90
2022-12-08T10:56:25.368Z,8.27
2022-12-08T10:59:07.312Z,9.37
2022-12-08T11:01:39.938Z,9.30
2022-12-08T11:04:16.865Z,9.93
2022-12-08T11:06:44.997Z,11.10
2022-12-08T11:09:27.161Z,10.80
2022-12-08T11:11:58.033Z,12.07
2022-12-08T11:14:28.615Z,10.80
2022-12-08T11:17:03.403Z,9.80
2022-12-08T11:19:32.536Z,13.30
2022-12-08T11:22:00.206Z,11.33
2022-12-08T11:24:34.626Z,12.20
2022-12-08T11:27:06.940Z,11.13
2022-12-08T11:29:36.401Z,11.53
2022-12-08T11:32:07.596Z,13.50
2022-12-08T11:34:41.466Z,11.67
2022-12-08T11:37:18.507Z,10.43
2022-12-08T11:39:52.439Z,11.10
2022-12-08T11:42:23.157Z,12.43
2022-12-08T11:44:58.370Z,12.83
2022-12-08T11:47:29.535Z,12.60
2022-12-08T11:50:05.352Z,9.23
2022-12-08T11:52:42.008Z,11.60
2022-12-08T11:55:25.889Z,9.07
2022-12-08T11:57:55.739Z,11.03
2022-12-08T12:00:23.875Z,10.07
2022-12-08T12:03:01.600Z,12.03
2022-12-08T12:08:46.502Z,8.73
2022-12-08T12:11:36.884Z,11.07
2022-12-08T12:14:18.957Z,11.37
2022-12-08T12:17:01.947Z,12.07
2022-12-08T12:19:32.004Z,13.50
2022-12-08T12:22:09.605Z,10.40
2022-12-08T12:24:40.342Z,11.33
2022-12-08T12:27:22.575Z,11.63
2022-12-08T12:29:55.928Z,10.30
2022-12-08T12:32:25.334Z,15.13
2022-12-08T12:34:56.225Z,13.40
2022-12-08T12:37:27.231Z,11.23
2022-12-08T12:40:02.843Z,9.57
2022-12-08T12:42:42.064Z,11.67
2022-12-08T12:45:29.442Z,9.67
2022-12-08T12:48:23.501Z,10.50
2022-12-08T12:50:52.355Z,9.77
2022-12-08T12:53:52.013Z,12.10
2022-12-08T12:56:48.567Z,9.70
2022-12-08T12:59:32.165Z,14.60
2022-12-08T13:01:59.848Z,11.60
2022-12-08T13:04:35.234Z,9.23
2022-12-08T13:07:03.350Z,55.27
2022-12-08T13:09:39.458Z,21.70
2022-12-08T13:12:12.237Z,20.97
2022-12-08T13:14:48.205Z,14.00
2022-12-08T13:17:23.372Z,23.23
2022-12-08T13:19:55.562Z,19.40
2022-12-08T13:22:49.021Z,16.20
2022-12-08T13:25:51.119Z,12.97
2022-12-08T13:28:22.705Z,11.53
2022-12-08T13:30:51.706Z,13.53
2022-12-08T13:33:25.531Z,14.47
2022-12-08T13:36:04.105Z,13.30
2022-12-08T13:38:36.078Z,10.80
2022-12-08T13:41:13.219Z,13.50
2022-12-08T13:44:02.537Z,15.13
2022-12-08T13:56:51.292Z,10.63
2022-12-08T13:58:21.127Z,8.70
2022-12-08T14:01:05.253Z,8.57
2022-12-08T14:03:45.118Z,7.97
2022-12-08T14:06:30.590Z,9.13
2022-12-08T14:09:08.689Z,8.23
2022-12-08T14:11:40.472Z,9.10
2022-12-08T14:14:27.221Z,9.23
2022-12-08T14:17:05.068Z,9.53
2022-12-08T14:19:35.708Z,10.13
2022-12-08T14:22:11.388Z,8.47
2022-12-08T14:24:39.626Z,8.90
2022-12-08T14:27:10.323Z,8.03
2022-12-08T14:29:43.202Z,8.37
2022-12-08T14:32:22.995Z,11.30
2022-12-08T14:34:56.664Z,9.80
2022-12-08T14:37:27.687Z,8.43
2022-12-08T14:39:59.845Z,8.57
2022-12-08T14:42:29.133Z,9.33
2022-12-08T14:45:01.113Z,8.80
2022-12-08T14:47:34.625Z,10.03
2022-12-08T14:50:03.454Z,8.47
2022-12-08T14:52:35.765Z,9.17
2022-12-08T14:55:03.441Z,8.63
2022-12-08T14:57:36.593Z,8.40
2022-12-08T15:00:22.029Z,7.33
2022-12-08T15:02:49.740Z,7.33
2022-12-08T15:05:20.029Z,7.20
2022-12-08T15:07:51.186Z,9.10
2022-12-08T15:10:24.679Z,7.53
2022-12-08T15:13:06.407Z,9.23
2022-12-08T15:15:50.322Z,8.40
2022-12-08T15:18:20.349Z,9.17
2022-12-08T15:20:51.381Z,9.50
2022-12-08T15:23:23.211Z,8.50
2022-12-08T15:25:50.985Z,9.00
2022-12-08T15:28:22.028Z,9.40
2022-12-08T15:30:54.172Z,7.70
2022-12-08T15:33:23.514Z,10.10
2022-12-08T15:35:51.835Z,9.90
2022-12-08T15:38:26.086Z,12.80
2022-12-08T15:40:54.798Z,8.00
2022-12-08T15:43:23.700Z,10.87
2022-12-08T15:45:59.471Z,8.10
2022-12-08T15:48:30.188Z,10.63
2022-12-08T15:50:58.471Z,8.97
2022-12-08T15:53:26.634Z,7.83
2022-12-08T15:58:59.015Z,9.63
2022-12-08T16:01:28.429Z,9.27
2022-12-08T16:09:38.355Z,9.30
2022-12-08T16:12:25.529Z,10.23
2022-12-08T16:17:42.981Z,11.27
2022-12-08T16:20:16.788Z,10.70
2022-12-08T16:23:03.183Z,11.60
2022-12-08T16:26:00.032Z,9.17
2022-12-08T16:28:52.722Z,10.17
2022-12-08T16:31:14.373Z,8.50
2022-12-08T16:33:44.828Z,10.27
2022-12-08T16:36:12.478Z,8.67
2022-12-08T16:38:40.572Z,8.67
2022-12-08T16:41:31.011Z,9.83
2022-12-08T16:44:02.403Z,8.33
2022-12-08T16:46:30.371Z,8.37
2022-12-08T16:48:59.510Z,11.63
2022-12-08T16:51:27.729Z,8.67
2022-12-08T16:53:57.122Z,9.00
2022-12-08T16:56:31.915Z,10.30
2022-12-08T16:59:01.195Z,8.90
2022-12-08T17:01:29.053Z,9.20
2022-12-08T17:06:46.421Z,7.97
2022-12-08T17:09:14.793Z,7.70
2022-12-08T17:11:43.621Z,8.87
2022-12-08T17:14:12.402Z,7.40
2022-12-08T17:16:40.960Z,8.33
2022-12-08T17:19:09.391Z,7.83
2022-12-08T17:21:37.085Z,9.37
2022-12-08T17:24:06.851Z,8.70
2022-12-08T17:26:35.321Z,8.30
2022-12-08T17:29:03.658Z,7.60
2022-12-08T17:31:32.789Z,8.00
2022-12-08T17:34:01.034Z,9.03
2022-12-08T17:36:28.673Z,9.40
2022-12-08T17:38:56.668Z,11.30
2022-12-08T17:41:25.882Z,10.73
2022-12-08T17:43:53.907Z,10.77
2022-12-08T17:46:23.243Z,11.07
2022-12-08T17:48:51.278Z,9.90
2022-12-08T17:51:19.057Z,9.53
2022-12-08T17:53:47.179Z,10.53
2022-12-08T17:56:17.885Z,8.43
2022-12-08T17:58:51.334Z,10.77
2022-12-08T18:01:22.880Z,8.83
2022-12-08T18:03:50.989Z,8.87
2022-12-08T18:06:18.669Z,8.57
2022-12-08T18:08:46.388Z,8.30
2022-12-08T18:11:16.409Z,9.93
2022-12-08T18:13:45.158Z,9.80
2022-12-08T18:16:14.997Z,10.93
2022-12-08T18:18:42.721Z,10.37
2022-12-08T18:21:10.638Z,10.53
2022-12-08T18:23:39.433Z,9.37
2022-12-08T18:26:07.806Z,10.87
2022-12-08T18:28:36.480Z,8.00
2022-12-08T18:31:09.910Z,8.80
2022-12-08T18:33:40.645Z,7.87
2022-12-08T18:36:10.347Z,9.50
2022-12-08T18:38:38.738Z,9.97
2022-12-08T18:41:07.962Z,8.90
2022-12-08T18:43:36.900Z,9.17
2022-12-08T18:46:07.640Z,9.57
2022-12-08T18:48:35.709Z,7.63
2022-12-08T18:51:06.318Z,9.63
2022-12-08T18:53:33.956Z,10.90
2022-12-08T18:56:02.115Z,10.10
2022-12-08T18:58:29.808Z,10.87
2022-12-08T19:00:57.892Z,8.20
2022-12-08T19:03:26.189Z,8.93
2022-12-08T19:06:04.532Z,8.70
2022-12-08T19:08:32.454Z,10.63
2022-12-08T19:11:00.565Z,14.50
2022-12-08T19:13:28.552Z,15.30
2022-12-08T19:15:56.784Z,16.40
2022-12-08T19:18:24.520Z,16.50
2022-12-08T19:20:57.260Z,19.07
2022-12-08T19:23:29.011Z,16.20
2022-12-08T19:25:57.016Z,16.70
2022-12-08T19:28:24.649Z,16.80
2022-12-08T19:30:53.392Z,16.07
2022-12-08T19:33:21.055Z,18.63
2022-12-08T19:35:52.779Z,14.93
2022-12-08T19:38:20.872Z,17.13
2022-12-08T19:41:07.851Z,16.53
2022-12-08T19:43:53.071Z,16.13
2022-12-08T19:46:21.175Z,15.30
2022-12-08T19:48:49.028Z,16.30
2022-12-08T19:51:16.989Z,17.97
2022-12-08T19:53:47.745Z,15.70
2022-12-08T19:56:17.011Z,16.10
2022-12-08T19:58:44.654Z,14.37
2022-12-08T20:01:13.549Z,12.27
2022-12-08T20:03:41.310Z,13.63
2022-12-08T20:06:14.400Z,14.50
2022-12-08T20:08:44.880Z,14.47
2022-12-08T20:11:18.388Z,14.57
2022-12-08T20:13:47.638Z,12.67
2022-12-08T20:16:16.909Z,14.63
2022-12-08T20:18:45.922Z,14.40
2022-12-08T20:21:13.616Z,13.60
2022-12-08T20:23:41.324Z,15.23
2022-12-08T20:26:10.915Z,16.30
2022-12-08T20:28:40.029Z,13.93
2022-12-08T20:31:08.484Z,13.10
2022-12-08T20:33:36.224Z,12.07
2022-12-08T20:36:06.098Z,16.40
2022-12-08T20:38:33.781Z,9.10
2022-12-08T20:41:01.458Z,8.50
2022-12-08T20:43:29.145Z,7.43
2022-12-08T20:45:58.348Z,7.37
2022-12-08T20:48:26.181Z,8.30
2022-12-08T20:50:54.738Z,8.27
2022-12-08T20:53:22.491Z,8.90
2022-12-08T20:55:50.168Z,10.40
2022-12-08T20:58:17.815Z,9.53
2022-12-08T21:00:45.623Z,10.27
2022-12-08T21:03:15.524Z,9.40
2022-12-08T21:05:49.341Z,14.03
2022-12-08T21:08:17.729Z,11.03
2022-12-08T21:10:46.178Z,10.50
2022-12-08T21:13:13.938Z,12.40
2022-12-08T21:15:46.447Z,9.50
2022-12-08T21:18:16.213Z,10.73
2022-12-08T21:20:44.895Z,12.70
2022-12-08T21:23:13.274Z,10.10
2022-12-08T21:25:42.013Z,10.13
2022-12-08T21:28:11.463Z,13.83
2022-12-08T21:30:39.788Z,12.20
2022-12-08T21:33:07.781Z,11.60
2022-12-08T21:35:36.966Z,12.77
2022-12-08T21:38:05.525Z,11.30
2022-12-08T21:40:34.539Z,10.30
2022-12-08T21:43:03.935Z,11.03
2022-12-08T21:45:32.649Z,14.53
2022-12-08T21:48:04.329Z,11.70
2022-12-08T21:50:35.204Z,11.60
2022-12-08T21:53:04.251Z,9.57
2022-12-08T21:55:32.248Z,15.07
2022-12-08T21:58:01.018Z,14.90
2022-12-08T22:00:29.226Z,18.67
2022-12-08T22:02:58.188Z,17.60
2022-12-08T22:05:26.337Z,16.57
2022-12-08T22:07:55.023Z,15.63
2022-12-08T22:10:24.121Z,17.10
2022-12-08T22:12:52.685Z,14.77
2022-12-08T22:15:20.560Z,14.00
2022-12-08T22:17:48.584Z,20.30
2022-12-08T22:20:17.219Z,19.27
2022-12-08T22:22:46.009Z,20.97
2022-12-08T22:25:14.177Z,24.17
2022-12-08T22:27:43.571Z,18.03
2022-12-08T22:30:12.539Z,18.10
2022-12-08T22:32:41.867Z,27.40
2022-12-08T22:35:10.821Z,23.27
2022-12-08T22:37:39.480Z,22.30
2022-12-08T22:40:09.034Z,21.07
2022-12-08T22:42:37.038Z,19.20
2022-12-08T22:45:07.149Z,20.00
2022-12-08T22:47:35.070Z,18.43
2022-12-08T22:50:03.238Z,18.57
2022-12-08T22:52:31.672Z,18.50
2022-12-08T22:54:59.494Z,17.90
2022-12-08T22:57:27.449Z,19.83
2022-12-08T22:59:55.104Z,17.07
2022-12-08T23:02:24.501Z,22.03
2022-12-08T23:04:56.884Z,22.20
2022-12-08T23:07:24.778Z,23.87
2022-12-08T23:09:52.483Z,19.80
2022-12-08T23:12:20.155Z,24.00
2022-12-08T23:14:48.104Z,22.80
2022-12-08T23:17:15.807Z,20.70
2022-12-08T23:19:44.892Z,20.57
2022-12-08T23:22:13.036Z,23.40
2022-12-08T23:24:41.692Z,21.93
2022-12-08T23:27:09.727Z,22.93
2022-12-08T23:29:38.389Z,18.63
2022-12-08T23:32:06.668Z,20.83
2022-12-08T23:34:34.921Z,20.63
2022-12-08T23:37:04.076Z,22.67
2022-12-08T23:39:32.064Z,22.43
2022-12-08T23:41:59.963Z,23.70
2022-12-08T23:44:28.008Z,26.33
2022-12-08T23:46:55.884Z,23.03
2022-12-08T23:49:24.269Z,23.17
2022-12-08T23:51:52.411Z,23.60
2022-12-08T23:54:21.881Z,21.13
2022-12-08T23:56:49.738Z,22.40
2022-12-08T23:59:17.713Z,25.43
